Time,TemperatureF,DewpointF,PressureIn,WindDirection,WindDirectionDegrees,WindSpeedMPH,WindSpeedGustMPH,Humidity,HourlyPrecipIn,Conditions,Clouds,dailyrainin,SolarRadiationWatts/m^2,SoftwareType,DateUTC
2013-02-10 00:00:00,41.2,40.4,29.41,North,353,18.0,27.0,97,0.02,,---,0.00,0.00,VWS V14.01,2013-02-10 06:00:00,
2013-02-10 00:02:00,41.5,41.0,29.41,South,181,19.0,19.0,98,0.02,,---,0.00,0.00,VWS V14.01,2013-02-10 06:02:00,
2013-02-10 00:05:00,41.2,40.7,29.41,WSW,253,13.0,21.0,98,0.02,,---,0.00,0.00,VWS V14.01,2013-02-10 06:05:00,
2013-02-10 00:07:00,41.3,40.8,29.41,North,0,20.0,24.0,98,0.03,,---,0.01,0.00,VWS V14.01,2013-02-10 06:07:00,
2013-02-10 00:10:00,41.6,41.1,29.41,NW,322,14.0,24.0,98,0.03,,---,0.01,0.00,VWS V14.01,2013-02-10 06:10:00,
2013-02-10 00:12:00,41.3,40.8,29.41,NNW,335,13.0,24.0,98,0.02,,---,0.01,0.00,VWS V14.01,2013-02-10 06:12:00,
2013-02-10 00:15:00,41.5,41.0,29.40,WNW,284,16.0,24.0,98,0.02,,---,0.01,0.00,VWS V14.01,2013-02-10 06:15:00,
2013-02-10 00:17:00,41.3,40.8,29.40,North,0,12.0,16.0,98,0.02,,---,0.01,0.00,VWS V14.01,2013-02-10 06:17:00,
2013-02-10 00:20:00,41.3,40.8,29.40,North,0,14.0,19.0,98,0.02,,---,0.01,0.00,VWS V14.01,2013-02-10 06:20:00,
2013-02-10 00:22:00,41.6,41.1,29.40,NNW,339,21.0,24.0,98,0.02,,---,0.01,0.00,VWS V14.01,2013-02-10 06:22:00,
2013-02-10 00:25:00,41.6,41.1,29.40,NNW,343,17.0,24.0,98,0.02,,---,0.01,0.00,VWS V14.01,2013-02-10 06:25:00,
2013-02-10 00:27:00,41.6,41.1,29.40,South,182,18.0,25.0,98,0.02,,---,0.01,0.00,VWS V14.01,2013-02-10 06:27:00,
2013-02-10 00:30:00,41.6,41.1,29.40,North,0,17.0,25.0,98,0.02,,---,0.01,0.00,VWS V14.01,2013-02-10 06:30:00,
2013-02-10 00:32:00,41.6,41.1,29.40,WNW,296,15.0,22.0,98,0.01,,---,0.01,0.00,VWS V14.01,2013-02-10 06:32:00,
2013-02-10 00:35:00,41.8,41.3,29.40,NNW,335,17.0,22.0,98,0.01,,---,0.01,0.00,VWS V14.01,2013-02-10 06:35:00,
2013-02-10 00:37:00,41.9,41.4,29.40,NNW,335,16.0,20.0,98,0.01,,---,0.01,0.00,VWS V14.01,2013-02-10 06:37:00,
2013-02-10 00:40:00,41.6,41.1,29.40,WSW,256,19.0,20.0,98,0.01,,---,0.01,0.00,VWS V14.01,2013-02-10 06:40:00,
2013-02-10 00:42:00,41.6,41.1,29.40,North,0,14.0,21.0,98,0.01,,---,0.01,0.00,VWS V14.01,2013-02-10 06:42:00,
2013-02-10 00:45:00,41.8,41.3,29.38,North,356,12.0,21.0,98,0.01,,---,0.01,0.00,VWS V14.01,2013-02-10 06:45:00,
2013-02-10 00:47:00,41.8,41.3,29.38,SW,227,20.0,26.0,98,0.01,,---,0.01,0.00,VWS V14.01,2013-02-10 06:47:00,
2013-02-10 00:50:00,41.8,41.3,29.38,North,0,13.0,26.0,98,0.01,,---,0.01,0.00,VWS V14.01,2013-02-10 06:50:00,
2013-02-10 00:52:00,41.8,41.3,29.38,WNW,288,10.0,19.0,98,0.01,,---,0.01,0.00,VWS V14.01,2013-02-10 06:52:00,
2013-02-10 00:55:00,41.9,41.4,29.38,WNW,291,14.0,19.0,98,0.01,,---,0.01,0.00,VWS V14.01,2013-02-10 06:55:00,
2013-02-10 00:57:00,41.9,41.4,29.38,North,0,12.0,19.0,98,0.01,,---,0.01,0.00,VWS V14.01,2013-02-10 06:57:00,
2013-02-10 01:00:00,42.2,41.7,29.37,SSW,213,14.0,19.0,98,0.01,,---,0.01,0.00,VWS V14.01,2013-02-10 07:00:00,
2013-02-10 01:02:00,42.1,41.6,29.37,NW,322,13.0,17.0,98,0.01,,---,0.01,0.00,VWS V14.01,2013-02-10 07:02:00,
2013-02-10 01:05:00,42.5,42.0,29.37,NNW,336,12.0,21.0,98,0.01,,---,0.01,0.00,VWS V14.01,2013-02-10 07:05:00,
2013-02-10 01:07:00,42.5,42.0,29.37,NNW,343,17.0,19.0,98,0.01,,---,0.01,0.00,VWS V14.01,2013-02-10 07:07:00,
2013-02-10 01:10:00,42.3,41.8,29.37,North,0,12.0,19.0,98,0.01,,---,0.01,0.00,VWS V14.01,2013-02-10 07:10:00,
2013-02-10 01:12:00,42.8,42.3,29.37,West,267,15.0,20.0,98,0.00,,---,0.01,0.00,VWS V14.01,2013-02-10 07:12:00,
2013-02-10 01:15:00,42.6,42.1,29.37,NNW,332,8.0,21.0,98,0.00,,---,0.01,0.00,VWS V14.01,2013-02-10 07:15:00,
2013-02-10 01:18:00,42.8,42.3,29.37,WNW,292,13.0,28.0,98,0.00,,---,0.01,0.00,VWS V14.01,2013-02-10 07:18:00,
2013-02-10 01:20:00,42.9,42.4,29.37,North,354,16.0,28.0,98,0.00,,---,0.01,0.00,VWS V14.01,2013-02-10 07:20:00,
2013-02-10 01:23:00,42.8,42.3,29.37,North,0,18.0,24.0,98,0.00,,---,0.01,0.00,VWS V14.01,2013-02-10 07:23:00,
2013-02-10 01:25:00,43.1,42.6,29.37,NNW,337,14.0,24.0,98,0.00,,---,0.01,0.00,VWS V14.01,2013-02-10 07:25:00,
2013-02-10 01:28:00,42.9,42.4,29.37,North,0,12.0,19.0,98,0.00,,---,0.01,0.00,VWS V14.01,2013-02-10 07:28:00,
2013-02-10 01:30:00,42.9,42.4,29.34,North,0,17.0,20.0,98,0.00,,---,0.01,0.00,VWS V14.01,2013-02-10 07:30:00,
2013-02-10 01:33:00,43.1,42.6,29.34,North,0,12.0,21.0,98,0.00,,---,0.01,0.00,VWS V14.01,2013-02-10 07:33:00,
2013-02-10 01:35:00,43.2,42.7,29.34,NNW,347,17.0,21.0,98,0.00,,---,0.01,0.00,VWS V14.01,2013-02-10 07:35:00,
2013-02-10 01:38:00,43.2,42.7,29.34,WNW,296,10.0,17.0,98,0.00,,---,0.01,0.00,VWS V14.01,2013-02-10 07:38:00,
2013-02-10 01:40:00,43.3,42.8,29.34,West,261,14.0,18.0,98,0.00,,---,0.01,0.00,VWS V14.01,2013-02-10 07:40:00,
2013-02-10 01:43:00,43.5,43.2,29.34,SW,216,13.0,20.0,99,0.00,,---,0.01,0.00,VWS V14.01,2013-02-10 07:43:00,
2013-02-10 01:45:00,43.5,43.2,29.33,SSW,208,11.0,20.0,99,0.00,,---,0.01,0.00,VWS V14.01,2013-02-10 07:45:00,
2013-02-10 01:48:00,43.5,43.2,29.33,West,260,17.0,20.0,99,0.00,,---,0.01,0.00,VWS V14.01,2013-02-10 07:48:00,
2013-02-10 01:50:00,43.5,43.2,29.33,North,0,13.0,20.0,99,0.00,,---,0.01,0.00,VWS V14.01,2013-02-10 07:50:00,
2013-02-10 01:53:00,43.6,43.3,29.33,North,350,14.0,28.0,99,0.00,,---,0.01,0.00,VWS V14.01,2013-02-10 07:53:00,
2013-02-10 01:55:00,43.6,43.3,29.33,North,0,13.0,28.0,99,0.00,,---,0.01,0.00,VWS V14.01,2013-02-10 07:55:00,
2013-02-10 01:58:00,43.8,43.5,29.32,WNW,285,13.0,18.0,99,0.00,,---,0.01,0.00,VWS V14.01,2013-02-10 07:58:00,
2013-02-10 02:00:00,43.9,43.6,29.32,NNW,347,14.0,18.0,99,0.00,,---,0.01,0.00,VWS V14.01,2013-02-10 08:00:00,
2013-02-10 02:03:00,43.9,43.6,29.32,West,270,24.0,24.0,99,0.00,,---,0.01,0.00,VWS V14.01,2013-02-10 08:03:00,
2013-02-10 02:05:00,43.9,43.6,29.32,WSW,243,12.0,24.0,99,0.00,,---,0.01,0.00,VWS V14.01,2013-02-10 08:05:00,
2013-02-10 02:08:00,44.1,43.6,29.32,North,0,7.0,18.0,98,0.00,,---,0.01,0.00,VWS V14.01,2013-02-10 08:08:00,
2013-02-10 02:10:00,43.9,43.4,29.32,North,0,16.0,18.0,98,0.00,,---,0.01,0.00,VWS V14.01,2013-02-10 08:10:00,
2013-02-10 02:13:00,44.1,43.6,29.31,SSW,210,11.0,18.0,98,0.00,,---,0.01,0.00,VWS V14.01,2013-02-10 08:13:00,
2013-02-10 02:15:00,44.2,43.7,29.31,WNW,296,10.0,18.0,98,0.00,,---,0.01,0.00,VWS V14.01,2013-02-10 08:15:00,
2013-02-10 02:18:00,44.2,43.7,29.31,North,0,12.0,21.0,98,0.00,,---,0.01,0.00,VWS V14.01,2013-02-10 08:18:00,
2013-02-10 02:20:00,44.2,43.7,29.31,NNW,346,13.0,22.0,98,0.00,,---,0.01,0.00,VWS V14.01,2013-02-10 08:20:00,
2013-02-10 02:23:00,44.5,44.0,29.31,North,0,11.0,25.0,98,0.00,,---,0.01,0.00,VWS V14.01,2013-02-10 08:23:00,
2013-02-10 02:25:00,44.5,44.0,29.31,North,0,18.0,25.0,98,0.00,,---,0.01,0.00,VWS V14.01,2013-02-10 08:25:00,
2013-02-10 02:29:00,44.9,44.4,29.31,North,0,22.0,27.0,98,0.00,,---,0.01,0.00,VWS V14.01,2013-02-10 08:29:00,
2013-02-10 02:30:00,44.9,44.4,29.31,SSE,165,14.0,27.0,98,0.00,,---,0.01,0.00,VWS V14.01,2013-02-10 08:30:00,
2013-02-10 02:34:00,45.1,44.6,29.31,North,0,17.0,30.0,98,0.00,,---,0.01,0.00,VWS V14.01,2013-02-10 08:34:00,
2013-02-10 02:35:00,45.1,44.6,29.31,NNW,347,25.0,30.0,98,0.00,,---,0.01,0.00,VWS V14.01,2013-02-10 08:35:00,
2013-02-10 02:39:00,45.4,44.9,29.31,North,0,25.0,30.0,98,0.00,,---,0.01,0.00,VWS V14.01,2013-02-10 08:39:00,
2013-02-10 02:40:00,45.4,44.9,29.31,North,0,26.0,30.0,98,0.00,,---,0.01,0.00,VWS V14.01,2013-02-10 08:40:00,
2013-02-10 02:44:00,45.7,45.2,29.31,NNW,342,21.0,32.0,98,0.00,,---,0.01,0.00,VWS V14.01,2013-02-10 08:44:00,
2013-02-10 02:45:00,45.7,45.2,29.31,North,0,21.0,32.0,98,0.00,,---,0.01,0.00,VWS V14.01,2013-02-10 08:45:00,
2013-02-10 02:49:00,45.8,45.3,29.31,North,0,26.0,29.0,98,0.00,,---,0.01,0.00,VWS V14.01,2013-02-10 08:49:00,
2013-02-10 02:50:00,45.8,45.3,29.31,North,0,26.0,29.0,98,0.00,,---,0.01,0.00,VWS V14.01,2013-02-10 08:50:00,
2013-02-10 02:54:00,45.8,45.3,29.31,North,357,21.0,30.0,98,0.00,,---,0.01,0.00,VWS V14.01,2013-02-10 08:54:00,
2013-02-10 02:55:00,45.8,45.3,29.31,WNW,287,25.0,30.0,98,0.00,,---,0.01,0.00,VWS V14.01,2013-02-10 08:55:00,
2013-02-10 02:59:00,45.8,45.3,29.30,NNW,332,19.0,35.0,98,0.00,,---,0.01,0.00,VWS V14.01,2013-02-10 08:59:00,
2013-02-10 03:00:00,45.8,45.3,29.30,NNW,332,19.0,35.0,98,0.00,,---,0.01,0.00,VWS V14.01,2013-02-10 09:00:00,
2013-02-10 03:04:00,46.0,45.5,29.30,West,263,20.0,28.0,98,0.00,,---,0.01,0.00,VWS V14.01,2013-02-10 09:04:00,
2013-02-10 03:05:00,46.0,45.5,29.30,WNW,294,28.0,30.0,98,0.00,,---,0.01,0.00,VWS V14.01,2013-02-10 09:05:00,
2013-02-10 03:09:00,46.0,45.2,29.30,West,281,18.0,18.0,97,0.00,,---,0.01,0.00,VWS V14.01,2013-02-10 09:09:00,
2013-02-10 03:10:00,46.0,45.2,29.30,WNW,298,14.0,33.0,97,0.00,,---,0.01,0.00,VWS V14.01,2013-02-10 09:10:00,
2013-02-10 03:14:00,46.1,45.3,29.28,NNW,342,25.0,26.0,97,0.00,,---,0.01,0.00,VWS V14.01,2013-02-10 09:14:00,
2013-02-10 03:15:00,46.0,45.2,29.28,SW,223,26.0,34.0,97,0.00,,---,0.01,0.00,VWS V14.01,2013-02-10 09:15:00,
2013-02-10 03:19:00,46.1,45.3,29.28,NW,304,20.0,28.0,97,0.00,,---,0.01,0.00,VWS V14.01,2013-02-10 09:19:00,
2013-02-10 03:20:00,46.1,45.3,29.28,WSW,258,28.0,28.0,97,0.00,,---,0.01,0.00,VWS V14.01,2013-02-10 09:20:00,
2013-02-10 03:24:00,46.1,45.3,29.28,WNW,298,16.0,24.0,97,0.00,,---,0.01,0.00,VWS V14.01,2013-02-10 09:24:00,
2013-02-10 03:25:00,46.1,45.3,29.28,North,357,24.0,35.0,97,0.00,,---,0.01,0.00,VWS V14.01,2013-02-10 09:25:00,
2013-02-10 03:29:00,46.0,44.9,29.27,North,0,22.0,31.0,96,0.00,,---,0.01,0.00,VWS V14.01,2013-02-10 09:29:00,
2013-02-10 03:30:00,46.0,44.9,29.27,NNW,342,26.0,31.0,96,0.00,,---,0.01,0.00,VWS V14.01,2013-02-10 09:30:00,
2013-02-10 03:34:00,45.7,44.6,29.27,NW,319,22.0,26.0,96,0.00,,---,0.01,0.00,VWS V14.01,2013-02-10 09:34:00,
2013-02-10 03:35:00,45.7,44.6,29.27,North,0,26.0,31.0,96,0.00,,---,0.01,0.00,VWS V14.01,2013-02-10 09:35:00,
2013-02-10 03:40:00,45.5,44.2,29.27,WNW,292,25.0,30.0,95,0.00,,---,0.01,0.00,VWS V14.01,2013-02-10 09:40:00,
2013-02-10 03:45:00,45.2,43.9,29.26,West,267,17.0,26.0,95,0.00,,---,0.01,0.00,VWS V14.01,2013-02-10 09:45:00,
2013-02-10 03:50:00,45.2,43.9,29.26,North,0,29.0,29.0,95,0.00,,---,0.01,0.00,VWS V14.01,2013-02-10 09:50:00,
2013-02-10 03:55:00,45.2,43.6,29.26,South,185,16.0,31.0,94,0.00,,---,0.01,0.00,VWS V14.01,2013-02-10 09:55:00,
2013-02-10 04:00:00,45.1,43.5,29.24,ESE,120,29.0,33.0,94,0.00,,---,0.01,0.00,VWS V14.01,2013-02-10 10:00:00,
2013-02-10 04:05:00,45.1,43.5,29.24,West,267,26.0,29.0,94,0.00,,---,0.01,0.00,VWS V14.01,2013-02-10 10:05:00,
2013-02-10 04:10:00,45.1,43.2,29.24,NNW,330,20.0,24.0,93,0.00,,---,0.01,0.00,VWS V14.01,2013-02-10 10:10:00,
2013-02-10 04:15:00,44.9,43.0,29.23,NNW,337,27.0,29.0,93,0.00,,---,0.01,0.00,VWS V14.01,2013-02-10 10:15:00,
2013-02-10 04:20:00,44.8,42.9,29.23,SW,223,21.0,26.0,93,0.00,,---,0.01,0.00,VWS V14.01,2013-02-10 10:20:00,
2013-02-10 04:25:00,44.8,42.9,29.23,NNW,344,30.0,32.0,93,0.00,,---,0.01,0.00,VWS V14.01,2013-02-10 10:25:00,
2013-02-10 04:30:00,44.8,42.9,29.23,NW,309,32.0,32.0,93,0.00,,---,0.01,0.00,VWS V14.01,2013-02-10 10:30:00,
2013-02-10 04:35:00,44.6,42.7,29.23,SW,232,21.0,26.0,93,0.00,,---,0.01,0.00,VWS V14.01,2013-02-10 10:35:00,
2013-02-10 04:40:00,44.6,42.7,29.23,North,0,16.0,27.0,93,0.00,,---,0.01,0.00,VWS V14.01,2013-02-10 10:40:00,
2013-02-10 04:45:00,44.5,42.6,29.23,WSW,240,13.0,22.0,93,0.00,,---,0.01,0.00,VWS V14.01,2013-02-10 10:45:00,
2013-02-10 04:50:00,44.5,42.6,29.23,NW,311,14.0,27.0,93,0.00,,---,0.01,0.00,VWS V14.01,2013-02-10 10:50:00,
2013-02-10 04:51:00,44.3,42.4,29.23,NW,315,19.0,25.0,93,0.00,,---,0.01,0.00,VWS V14.01,2013-02-10 10:51:00,
2013-02-10 04:55:00,44.3,42.4,29.23,North,0,21.0,26.0,93,0.00,,---,0.01,0.00,VWS V14.01,2013-02-10 10:55:00,
2013-02-10 04:56:00,44.3,42.4,29.23,West,272,21.0,27.0,93,0.00,,---,0.01,0.00,VWS V14.01,2013-02-10 10:56:00,
2013-02-10 05:00:00,44.5,42.6,29.23,SSW,210,19.0,29.0,93,0.00,,---,0.01,0.00,VWS V14.01,2013-02-10 11:00:00,
2013-02-10 05:01:00,44.5,42.6,29.23,West,268,24.0,29.0,93,0.00,,---,0.01,0.00,VWS V14.01,2013-02-10 11:01:00,
2013-02-10 05:05:00,44.5,42.6,29.23,NW,308,21.0,29.0,93,0.00,,---,0.01,0.00,VWS V14.01,2013-02-10 11:05:00,
2013-02-10 05:06:00,44.5,42.6,29.23,NW,315,17.0,26.0,93,0.00,,---,0.01,0.00,VWS V14.01,2013-02-10 11:06:00,
2013-02-10 05:10:00,44.5,42.3,29.23,SW,232,19.0,32.0,92,0.00,,---,0.01,0.00,VWS V14.01,2013-02-10 11:10:00,
2013-02-10 05:11:00,44.5,42.3,29.23,North,0,22.0,29.0,92,0.00,,---,0.01,0.00,VWS V14.01,2013-02-10 11:11:00,
2013-02-10 05:15:00,42.2,28.5,29.26,NW,318,28.0,37.0,58,0.00,,---,0.01,0.00,VWS V14.01,2013-02-10 11:15:00,
2013-02-10 05:16:00,44.5,42.3,29.22,North,350,24.0,33.0,92,0.00,,---,0.01,0.00,VWS V14.01,2013-02-10 11:16:00,
2013-02-10 05:20:00,44.5,42.0,29.22,NW,309,17.0,33.0,91,0.00,,---,0.01,0.00,VWS V14.01,2013-02-10 11:20:00,
2013-02-10 05:21:00,44.5,41.8,29.22,NNW,336,30.0,30.0,90,0.00,,---,0.01,0.00,VWS V14.01,2013-02-10 11:21:00,
2013-02-10 05:25:00,44.5,41.8,29.22,SW,236,24.0,30.0,90,0.00,,---,0.01,0.00,VWS V14.01,2013-02-10 11:25:00,
2013-02-10 05:26:00,44.3,41.3,29.22,North,354,22.0,29.0,89,0.00,,---,0.01,0.00,VWS V14.01,2013-02-10 11:26:00,
2013-02-10 05:30:00,44.3,41.3,29.23,WSW,250,21.0,29.0,89,0.00,,---,0.01,0.00,VWS V14.01,2013-02-10 11:30:00,
2013-02-10 05:31:00,44.3,41.0,29.23,NNW,339,18.0,28.0,88,0.00,,---,0.01,0.00,VWS V14.01,2013-02-10 11:31:00,
2013-02-10 05:35:00,44.3,41.0,29.23,WNW,301,26.0,29.0,88,0.00,,---,0.01,0.00,VWS V14.01,2013-02-10 11:35:00,
2013-02-10 05:36:00,44.3,40.7,29.23,SSW,192,21.0,31.0,87,0.00,,---,0.01,0.00,VWS V14.01,2013-02-10 11:36:00,
2013-02-10 05:40:00,44.3,40.4,29.23,SSW,212,25.0,31.0,86,0.00,,---,0.01,0.00,VWS V14.01,2013-02-10 11:40:00,
2013-02-10 05:41:00,44.3,40.1,29.23,North,354,31.0,31.0,85,0.00,,---,0.01,0.00,VWS V14.01,2013-02-10 11:41:00,
2013-02-10 05:45:00,44.2,39.7,29.24,WNW,302,19.0,31.0,84,0.00,,---,0.01,0.00,VWS V14.01,2013-02-10 11:45:00,
2013-02-10 05:46:00,44.1,39.3,29.24,West,264,19.0,28.0,83,0.00,,---,0.01,0.00,VWS V14.01,2013-02-10 11:46:00,
2013-02-10 05:50:00,43.9,38.5,29.24,West,274,22.0,31.0,81,0.00,,---,0.01,0.00,VWS V14.01,2013-02-10 11:50:00,
2013-02-10 05:52:00,43.9,37.5,29.24,NNW,336,29.0,31.0,78,0.00,,---,0.01,0.00,VWS V14.01,2013-02-10 11:52:00,
2013-02-10 05:55:00,43.8,36.1,29.24,North,0,26.0,31.0,74,0.00,,---,0.01,0.00,VWS V14.01,2013-02-10 11:55:00,
2013-02-10 05:57:00,43.8,35.0,29.24,North,359,28.0,30.0,71,0.00,,---,0.01,0.00,VWS V14.01,2013-02-10 11:57:00,
2013-02-10 06:00:00,43.6,34.1,29.25,West,270,19.0,30.0,69,0.00,,---,0.01,0.00,VWS V14.01,2013-02-10 12:00:00,
2013-02-10 06:02:00,43.5,33.3,29.25,North,0,22.0,32.0,67,0.00,,---,0.01,0.00,VWS V14.01,2013-02-10 12:02:00,
2013-02-10 06:05:00,43.2,31.5,29.25,WNW,301,30.0,32.0,63,0.00,,---,0.01,0.00,VWS V14.01,2013-02-10 12:05:00,
2013-02-10 06:07:00,42.9,30.4,29.25,NW,323,26.0,31.0,61,0.00,,---,0.01,0.00,VWS V14.01,2013-02-10 12:07:00,
2013-02-10 06:10:00,42.8,30.7,29.25,North,356,27.0,37.0,62,0.00,,---,0.01,0.00,VWS V14.01,2013-02-10 12:10:00,
2013-02-10 06:12:00,42.5,28.4,29.25,NNW,332,36.0,37.0,57,0.00,,---,0.01,0.00,VWS V14.01,2013-02-10 12:12:00,
2013-02-10 06:15:00,42.2,28.5,29.26,NW,318,28.0,37.0,58,0.00,,---,0.01,0.00,VWS V14.01,2013-02-10 12:15:00,
2013-02-10 06:17:00,41.9,27.4,29.26,North,0,34.0,37.0,56,0.00,,---,0.01,0.00,VWS V14.01,2013-02-10 12:17:00,
2013-02-10 06:20:00,41.8,27.7,29.26,North,0,36.0,39.0,57,0.00,,---,0.01,0.00,VWS V14.01,2013-02-10 12:20:00,
2013-02-10 06:22:00,41.6,27.5,29.26,North,0,32.0,38.0,57,0.00,,---,0.01,0.00,VWS V14.01,2013-02-10 12:22:00,
2013-02-10 06:25:00,41.3,28.1,29.26,NW,313,26.0,38.0,59,0.00,,---,0.01,0.00,VWS V14.01,2013-02-10 12:25:00,
2013-02-10 06:27:00,40.9,28.1,29.26,West,265,25.0,29.0,60,0.00,,---,0.01,0.00,VWS V14.01,2013-02-10 12:27:00,
2013-02-10 06:30:00,40.6,28.6,29.26,WNW,289,27.0,29.0,62,0.00,,---,0.01,0.00,VWS V14.01,2013-02-10 12:30:00,
2013-02-10 06:32:00,40.2,28.6,29.26,WNW,285,27.0,32.0,63,0.00,,---,0.01,0.00,VWS V14.01,2013-02-10 12:32:00,
2013-02-10 06:35:00,40.1,28.9,29.26,North,0,29.0,33.0,64,0.00,,---,0.01,0.00,VWS V14.01,2013-02-10 12:35:00,
2013-02-10 06:37:00,39.5,29.1,29.26,West,271,28.0,31.0,66,0.00,,---,0.01,0.00,VWS V14.01,2013-02-10 12:37:00,
2013-02-10 06:40:00,39.3,29.3,29.26,NW,312,26.0,33.0,67,0.00,,---,0.01,0.00,VWS V14.01,2013-02-10 12:40:00,
2013-02-10 06:42:00,38.8,29.5,29.26,West,271,25.0,28.0,69,0.00,,---,0.01,0.00,VWS V14.01,2013-02-10 12:42:00,
2013-02-10 06:45:00,36.3,30.4,29.31,North,359,19.0,25.0,79,0.00,,---,0.01,16.00,VWS V14.01,2013-02-10 12:45:00,
2013-02-10 06:47:00,38.3,29.7,29.28,North,0,21.0,28.0,71,0.00,,---,0.01,0.00,VWS V14.01,2013-02-10 12:47:00,
2013-02-10 06:50:00,38.0,29.8,29.28,North,350,26.0,28.0,72,0.00,,---,0.01,0.00,VWS V14.01,2013-02-10 12:50:00,
2013-02-10 06:52:00,37.9,30.0,29.28,NW,322,21.0,29.0,73,0.00,,---,0.01,0.00,VWS V14.01,2013-02-10 12:52:00,
2013-02-10 06:55:00,37.8,29.9,29.28,North,0,26.0,29.0,73,0.00,,---,0.01,0.00,VWS V14.01,2013-02-10 12:55:00,
2013-02-10 06:57:00,37.6,30.1,29.28,North,350,22.0,28.0,74,0.00,,---,0.01,0.00,VWS V14.01,2013-02-10 12:57:00,
2013-02-10 07:00:00,37.5,30.0,29.29,North,0,19.0,28.0,74,0.00,,---,0.01,0.00,VWS V14.01,2013-02-10 13:00:00,
2013-02-10 07:03:00,37.5,30.3,29.29,North,0,20.0,29.0,75,0.00,,---,0.01,0.00,VWS V14.01,2013-02-10 13:03:00,
2013-02-10 07:05:00,37.3,30.1,29.29,NNW,344,20.0,29.0,75,0.00,,---,0.01,0.00,VWS V14.01,2013-02-10 13:05:00,
2013-02-10 07:08:00,37.2,30.0,29.29,NW,325,19.0,26.0,75,0.00,,---,0.01,0.00,VWS V14.01,2013-02-10 13:08:00,
2013-02-10 07:10:00,37.0,29.8,29.29,North,359,21.0,26.0,75,0.00,,---,0.01,0.00,VWS V14.01,2013-02-10 13:10:00,
2013-02-10 07:13:00,36.9,30.0,29.29,North,0,20.0,24.0,76,0.00,,---,0.01,0.00,VWS V14.01,2013-02-10 13:13:00,
2013-02-10 07:15:00,36.8,30.0,29.30,NW,311,19.0,24.0,76,0.00,,---,0.01,0.00,VWS V14.01,2013-02-10 13:15:00,
2013-02-10 07:18:00,36.8,30.3,29.30,North,354,19.0,22.0,77,0.00,,---,0.01,0.00,VWS V14.01,2013-02-10 13:18:00,
2013-02-10 07:20:00,36.8,30.3,29.30,North,0,15.0,22.0,77,0.00,,---,0.01,0.00,VWS V14.01,2013-02-10 13:20:00,
2013-02-10 07:23:00,36.6,30.1,29.30,North,0,16.0,20.0,77,0.00,,---,0.01,0.00,VWS V14.01,2013-02-10 13:23:00,
2013-02-10 07:25:00,36.6,30.4,29.30,WNW,288,17.0,20.0,78,0.00,,---,0.01,0.00,VWS V14.01,2013-02-10 13:25:00,
2013-02-10 07:28:00,36.5,30.3,29.30,NW,320,18.0,28.0,78,0.00,,---,0.01,0.00,VWS V14.01,2013-02-10 13:28:00,
2013-02-10 07:30:00,36.5,30.3,29.31,NNW,340,22.0,28.0,78,0.00,,---,0.01,0.00,VWS V14.01,2013-02-10 13:30:00,
2013-02-10 07:33:00,36.5,30.6,29.31,WSW,247,24.0,25.0,79,0.00,,---,0.01,0.00,VWS V14.01,2013-02-10 13:33:00,
2013-02-10 07:35:00,36.5,30.6,29.31,WSW,247,24.0,25.0,79,0.00,,---,0.01,0.00,VWS V14.01,2013-02-10 13:35:00,
2013-02-10 07:38:00,36.3,30.4,29.31,WNW,296,19.0,26.0,79,0.00,,---,0.01,5.00,VWS V14.01,2013-02-10 13:38:00,
2013-02-10 07:40:00,36.3,30.4,29.31,West,265,25.0,26.0,79,0.00,,---,0.01,5.00,VWS V14.01,2013-02-10 13:40:00,
2013-02-10 07:43:00,36.3,30.4,29.31,NNW,337,17.0,25.0,79,0.00,,---,0.01,16.00,VWS V14.01,2013-02-10 13:43:00,
2013-02-10 07:45:00,36.3,30.4,29.31,North,359,19.0,25.0,79,0.00,,---,0.01,16.00,VWS V14.01,2013-02-10 13:45:00,
2013-02-10 07:48:00,36.3,30.1,29.31,WNW,296,21.0,24.0,78,0.00,,---,0.01,23.00,VWS V14.01,2013-02-10 13:48:00,
2013-02-10 07:50:00,36.2,30.0,29.31,North,0,17.0,24.0,78,0.00,,---,0.01,23.00,VWS V14.01,2013-02-10 13:50:00,
2013-02-10 07:54:00,36.3,30.1,29.31,North,356,18.0,27.0,78,0.00,,---,0.01,40.00,VWS V14.01,2013-02-10 13:54:00,
2013-02-10 07:55:00,36.3,29.8,29.31,NW,322,18.0,27.0,77,0.00,,---,0.01,40.00,VWS V14.01,2013-02-10 13:55:00,
2013-02-10 07:59:00,36.2,29.7,29.31,NNW,336,24.0,24.0,77,0.00,,---,0.01,49.00,VWS V14.01,2013-02-10 13:59:00,
2013-02-10 08:00:00,36.2,29.7,29.31,NNW,347,20.0,24.0,77,0.00,,---,0.01,49.00,VWS V14.01,2013-02-10 14:00:00,
2013-02-10 08:04:00,36.3,29.5,29.31,North,352,18.0,24.0,76,0.00,,---,0.01,69.00,VWS V14.01,2013-02-10 14:04:00,
2013-02-10 08:05:00,36.3,29.5,29.31,North,356,18.0,24.0,76,0.00,,---,0.01,69.00,VWS V14.01,2013-02-10 14:05:00,
2013-02-10 08:09:00,36.3,29.5,29.31,NW,318,20.0,24.0,76,0.00,,---,0.01,76.00,VWS V14.01,2013-02-10 14:09:00,
2013-02-10 08:10:00,36.3,29.5,29.31,NW,318,20.0,24.0,76,0.00,,---,0.01,76.00,VWS V14.01,2013-02-10 14:10:00,
2013-02-10 08:14:00,36.5,29.3,29.31,NW,319,17.0,27.0,75,0.00,,---,0.01,90.00,VWS V14.01,2013-02-10 14:14:00,
2013-02-10 08:15:00,36.5,29.3,29.31,NW,319,17.0,27.0,75,0.00,,---,0.01,90.00,VWS V14.01,2013-02-10 14:15:00,
2013-02-10 08:19:00,36.6,29.4,29.31,North,0,20.0,27.0,75,0.00,,---,0.01,104.00,VWS V14.01,2013-02-10 14:19:00,
2013-02-10 08:20:00,36.6,29.4,29.31,North,0,20.0,27.0,75,0.00,,---,0.01,104.00,VWS V14.01,2013-02-10 14:20:00,
2013-02-10 08:24:00,36.8,29.6,29.31,NW,309,17.0,22.0,75,0.00,,---,0.01,118.00,VWS V14.01,2013-02-10 14:24:00,
2013-02-10 08:25:00,36.8,29.6,29.31,North,357,22.0,29.0,75,0.00,,---,0.01,114.00,VWS V14.01,2013-02-10 14:25:00,
2013-02-10 08:29:00,36.9,29.4,29.31,North,349,25.0,26.0,74,0.00,,---,0.01,132.00,VWS V14.01,2013-02-10 14:29:00,
2013-02-10 08:30:00,37.6,25.8,29.32,WSW,251,25.0,38.0,62,0.00,,---,0.01,308.00,VWS V14.01,2013-02-10 14:30:00,
2013-02-10 08:34:00,37.0,29.5,29.31,North,0,20.0,24.0,74,0.00,,---,0.01,143.00,VWS V14.01,2013-02-10 14:34:00,
2013-02-10 08:35:00,37.0,29.5,29.31,North,0,18.0,29.0,74,0.00,,---,0.01,143.00,VWS V14.01,2013-02-10 14:35:00,
2013-02-10 08:39:00,37.2,29.4,29.31,North,357,22.0,24.0,73,0.00,,---,0.01,165.00,VWS V14.01,2013-02-10 14:39:00,
2013-02-10 08:40:00,37.2,29.4,29.31,North,0,19.0,30.0,73,0.00,,---,0.01,155.00,VWS V14.01,2013-02-10 14:40:00,
2013-02-10 08:45:00,37.5,29.6,29.31,WNW,299,24.0,26.0,73,0.00,,---,0.01,179.00,VWS V14.01,2013-02-10 14:45:00,
2013-02-10 08:50:00,37.8,29.9,29.31,North,0,24.0,29.0,73,0.00,,---,0.01,197.00,VWS V14.01,2013-02-10 14:50:00,
2013-02-10 08:55:00,37.9,30.0,29.31,WNW,285,29.0,31.0,73,0.00,,---,0.01,209.00,VWS V14.01,2013-02-10 14:55:00,
2013-02-10 09:00:00,37.9,29.7,29.31,NW,318,29.0,33.0,72,0.00,,---,0.01,225.00,VWS V14.01,2013-02-10 15:00:00,
2013-02-10 09:05:00,38.0,29.5,29.31,WNW,301,32.0,35.0,71,0.00,,---,0.01,243.00,VWS V14.01,2013-02-10 15:05:00,
2013-02-10 09:10:00,38.3,30.1,29.31,NNW,328,29.0,36.0,72,0.00,,---,0.01,252.00,VWS V14.01,2013-02-10 15:10:00,
2013-02-10 09:15:00,38.0,28.0,29.31,NNW,347,44.0,48.0,67,0.00,,---,0.01,266.00,VWS V14.01,2013-02-10 15:15:00,
2013-02-10 09:20:00,37.8,26.7,29.31,WSW,247,38.0,41.0,64,0.00,,---,0.01,285.00,VWS V14.01,2013-02-10 15:20:00,
2013-02-10 09:25:00,39.3,27.0,29.32,North,0,24.0,41.0,61,0.00,,---,0.01,359.00,VWS V14.01,2013-02-10 15:25:00,
2013-02-10 09:26:00,37.6,25.8,29.31,West,280,28.0,34.0,62,0.00,,---,0.01,299.00,VWS V14.01,2013-02-10 15:26:00,
2013-02-10 09:30:00,37.6,25.8,29.32,WSW,251,25.0,38.0,62,0.00,,---,0.01,308.00,VWS V14.01,2013-02-10 15:30:00,
2013-02-10 09:31:00,37.8,26.4,29.32,North,0,18.0,35.0,63,0.00,,---,0.01,311.00,VWS V14.01,2013-02-10 15:31:00,
2013-02-10 09:35:00,37.8,26.0,29.32,NNW,346,32.0,35.0,62,0.00,,---,0.01,320.00,VWS V14.01,2013-02-10 15:35:00,
2013-02-10 09:36:00,37.8,25.6,29.32,North,350,31.0,36.0,61,0.00,,---,0.01,327.00,VWS V14.01,2013-02-10 15:36:00,
2013-02-10 09:40:00,38.0,26.5,29.32,North,352,30.0,37.0,63,0.00,,---,0.01,334.00,VWS V14.01,2013-02-10 15:40:00,
2013-02-10 09:41:00,38.2,26.3,29.32,North,353,34.0,37.0,62,0.00,,---,0.01,347.00,VWS V14.01,2013-02-10 15:41:00,
2013-02-10 09:45:00,38.0,25.8,29.32,NW,313,28.0,44.0,61,0.00,,---,0.01,326.00,VWS V14.01,2013-02-10 15:45:00,
2013-02-10 09:46:00,38.0,26.1,29.32,NW,316,41.0,45.0,62,0.00,,---,0.01,357.00,VWS V14.01,2013-02-10 15:46:00,
2013-02-10 09:50:00,38.0,26.1,29.32,North,359,36.0,45.0,62,0.00,,---,0.01,364.00,VWS V14.01,2013-02-10 15:50:00,
2013-02-10 09:51:00,38.0,26.1,29.32,NW,325,37.0,46.0,62,0.00,,---,0.01,373.00,VWS V14.01,2013-02-10 15:51:00,
2013-02-10 09:55:00,37.9,25.7,29.32,North,0,33.0,46.0,61,0.00,,---,0.01,378.00,VWS V14.01,2013-02-10 15:55:00,
2013-02-10 09:56:00,37.9,25.7,29.32,NW,304,20.0,42.0,61,0.00,,---,0.01,385.00,VWS V14.01,2013-02-10 15:56:00,
2013-02-10 10:00:00,37.9,25.7,29.32,North,0,38.0,46.0,61,0.00,,---,0.01,389.00,VWS V14.01,2013-02-10 16:00:00,
2013-02-10 10:01:00,38.0,26.1,29.32,NNW,336,32.0,38.0,62,0.00,,---,0.01,396.00,VWS V14.01,2013-02-10 16:01:00,
2013-02-10 10:05:00,38.2,26.3,29.32,North,0,28.0,38.0,62,0.00,,---,0.01,405.00,VWS V14.01,2013-02-10 16:05:00,
2013-02-10 10:06:00,38.3,26.0,29.32,NNW,347,37.0,38.0,61,0.00,,---,0.01,410.00,VWS V14.01,2013-02-10 16:06:00,
2013-02-10 10:10:00,38.5,26.6,29.32,WNW,302,41.0,41.0,62,0.00,,---,0.01,412.00,VWS V14.01,2013-02-10 16:10:00,
2013-02-10 10:12:00,38.6,26.3,29.32,North,0,29.0,43.0,61,0.00,,---,0.01,419.00,VWS V14.01,2013-02-10 16:12:00,
2013-02-10 10:15:00,38.8,26.5,29.32,North,356,21.0,43.0,61,0.00,,---,0.01,422.00,VWS V14.01,2013-02-10 16:15:00,
2013-02-10 10:17:00,38.9,26.2,29.32,NW,312,36.0,41.0,60,0.00,,---,0.01,429.00,VWS V14.01,2013-02-10 16:17:00,
2013-02-10 10:20:00,38.8,25.3,29.32,NNW,332,41.0,43.0,58,0.00,,---,0.01,433.00,VWS V14.01,2013-02-10 16:20:00,
2013-02-10 10:22:00,38.9,26.2,29.32,NW,325,35.0,41.0,60,0.00,,---,0.01,438.00,VWS V14.01,2013-02-10 16:22:00,
2013-02-10 10:25:00,39.3,27.0,29.32,North,0,24.0,41.0,61,0.00,,---,0.01,359.00,VWS V14.01,2013-02-10 16:25:00,
2013-02-10 10:27:00,39.5,26.4,29.32,NNW,328,30.0,39.0,59,0.00,,---,0.01,452.00,VWS V14.01,2013-02-10 16:27:00,
2013-02-10 10:30:00,39.5,26.8,29.33,North,0,27.0,39.0,60,0.00,,---,0.01,456.00,VWS V14.01,2013-02-10 16:30:00,
2013-02-10 10:32:00,39.9,26.8,29.33,North,359,30.0,35.0,59,0.00,,---,0.01,463.00,VWS V14.01,2013-02-10 16:32:00,
2013-02-10 10:35:00,39.9,26.8,29.33,WNW,296,31.0,35.0,59,0.00,,---,0.01,463.00,VWS V14.01,2013-02-10 16:35:00,
2013-02-10 10:37:00,39.9,27.2,29.33,North,0,37.0,37.0,60,0.00,,---,0.01,468.00,VWS V14.01,2013-02-10 16:37:00,
2013-02-10 10:40:00,40.1,26.9,29.33,North,357,25.0,37.0,59,0.00,,---,0.01,475.00,VWS V14.01,2013-02-10 16:40:00,
2013-02-10 10:43:00,39.9,26.8,29.33,WNW,284,36.0,38.0,59,0.00,,---,0.01,484.00,VWS V14.01,2013-02-10 16:43:00,
2013-02-10 10:45:00,39.9,26.3,29.34,NNW,332,35.0,40.0,58,0.00,,---,0.01,489.00,VWS V14.01,2013-02-10 16:45:00,
2013-02-10 10:48:00,39.8,26.2,29.34,North,352,30.0,41.0,58,0.00,,---,0.01,494.00,VWS V14.01,2013-02-10 16:48:00,
2013-02-10 10:50:00,39.9,26.3,29.34,NNW,335,30.0,41.0,58,0.00,,---,0.01,496.00,VWS V14.01,2013-02-10 16:50:00,
2013-02-10 10:53:00,40.1,26.5,29.34,North,353,31.0,36.0,58,0.00,,---,0.01,501.00,VWS V14.01,2013-02-10 16:53:00,
2013-02-10 10:55:00,40.3,27.1,29.34,North,349,32.0,36.0,59,0.00,,---,0.01,507.00,VWS V14.01,2013-02-10 16:55:00,
2013-02-10 10:58:00,40.5,26.9,29.35,NNW,339,32.0,40.0,58,0.00,,---,0.01,512.00,VWS V14.01,2013-02-10 16:58:00,
2013-02-10 11:00:00,40.6,27.4,29.35,North,0,34.0,40.0,59,0.00,,---,0.01,516.00,VWS V14.01,2013-02-10 17:00:00,
2013-02-10 11:03:00,40.5,26.9,29.35,NW,316,25.0,45.0,58,0.00,,---,0.01,521.00,VWS V14.01,2013-02-10 17:03:00,
2013-02-10 11:05:00,40.6,27.4,29.35,North,0,25.0,45.0,59,0.00,,---,0.01,523.00,VWS V14.01,2013-02-10 17:05:00,
2013-02-10 11:08:00,40.8,26.8,29.35,North,356,33.0,43.0,57,0.00,,---,0.01,533.00,VWS V14.01,2013-02-10 17:08:00,
2013-02-10 11:10:00,42.1,28.0,29.38,NW,316,21.0,37.0,57,0.00,,---,0.01,130.00,VWS V14.01,2013-02-10 17:10:00,
2013-02-10 11:13:00,40.8,27.2,29.35,NW,322,34.0,44.0,58,0.00,,---,0.01,542.00,VWS V14.01,2013-02-10 17:13:00,
2013-02-10 11:15:00,41.6,27.1,29.38,North,0,29.0,37.0,56,0.00,,---,0.01,227.00,VWS V14.01,2013-02-10 17:15:00,
2013-02-10 11:18:00,41.1,26.2,29.35,North,0,25.0,42.0,55,0.00,,---,0.01,542.00,VWS V14.01,2013-02-10 17:18:00,
2013-02-10 11:20:00,41.1,27.0,29.35,NW,308,29.0,42.0,57,0.00,,---,0.01,542.00,VWS V14.01,2013-02-10 17:20:00,
2013-02-10 11:23:00,41.2,26.3,29.35,WNW,302,32.0,36.0,55,0.00,,---,0.01,545.00,VWS V14.01,2013-02-10 17:23:00,
2013-02-10 11:25:00,41.2,26.7,29.35,NNW,336,39.0,39.0,56,0.00,,---,0.01,545.00,VWS V14.01,2013-02-10 17:25:00,
2013-02-10 11:29:00,41.3,26.8,29.36,WNW,298,26.0,41.0,56,0.00,,---,0.01,556.00,VWS V14.01,2013-02-10 17:29:00,
2013-02-10 11:30:00,41.5,27.4,29.36,NNW,347,25.0,41.0,57,0.00,,---,0.01,556.00,VWS V14.01,2013-02-10 17:30:00,
2013-02-10 11:34:00,41.9,27.8,29.36,NNW,335,31.0,39.0,57,0.00,,---,0.01,561.00,VWS V14.01,2013-02-10 17:34:00,
2013-02-10 11:35:00,41.9,26.9,29.36,NW,313,29.0,39.0,55,0.00,,---,0.01,561.00,VWS V14.01,2013-02-10 17:35:00,
2013-02-10 11:39:00,42.1,27.5,29.36,North,359,25.0,38.0,56,0.00,,---,0.01,604.00,VWS V14.01,2013-02-10 17:39:00,
2013-02-10 11:40:00,42.1,27.5,29.36,North,0,28.0,38.0,56,0.00,,---,0.01,604.00,VWS V14.01,2013-02-10 17:40:00,
2013-02-10 11:44:00,42.3,27.3,29.36,NNW,340,28.0,36.0,55,0.00,,---,0.01,588.00,VWS V14.01,2013-02-10 17:44:00,
2013-02-10 11:45:00,42.3,27.3,29.36,NNW,332,25.0,36.0,55,0.00,,---,0.01,588.00,VWS V14.01,2013-02-10 17:45:00,
2013-02-10 11:49:00,42.3,28.2,29.36,North,353,34.0,36.0,57,0.00,,---,0.01,619.00,VWS V14.01,2013-02-10 17:49:00,
2013-02-10 11:50:00,42.3,27.7,29.36,North,0,31.0,36.0,56,0.00,,---,0.01,619.00,VWS V14.01,2013-02-10 17:50:00,
2013-02-10 11:54:00,42.3,27.7,29.36,North,0,18.0,41.0,56,0.00,,---,0.01,232.00,VWS V14.01,2013-02-10 17:54:00,
2013-02-10 11:55:00,42.3,27.7,29.36,North,0,18.0,41.0,56,0.00,,---,0.01,232.00,VWS V14.01,2013-02-10 17:55:00,
2013-02-10 11:59:00,41.9,27.4,29.38,NW,312,19.0,32.0,56,0.00,,---,0.01,190.00,VWS V14.01,2013-02-10 17:59:00,
2013-02-10 12:00:00,41.9,27.4,29.38,NW,312,19.0,32.0,56,0.00,,---,0.01,190.00,VWS V14.01,2013-02-10 18:00:00,
2013-02-10 12:04:00,41.1,27.0,29.38,NW,322,37.0,37.0,57,0.00,,---,0.01,125.00,VWS V14.01,2013-02-10 18:04:00,
2013-02-10 12:05:00,41.1,27.0,29.38,NW,322,37.0,37.0,57,0.00,,---,0.01,125.00,VWS V14.01,2013-02-10 18:05:00,
2013-02-10 12:09:00,42.1,28.0,29.38,NW,316,21.0,37.0,57,0.00,,---,0.01,130.00,VWS V14.01,2013-02-10 18:09:00,
2013-02-10 12:10:00,42.1,28.0,29.38,NW,316,21.0,37.0,57,0.00,,---,0.01,130.00,VWS V14.01,2013-02-10 18:10:00,
2013-02-10 12:14:00,41.6,27.1,29.38,North,0,29.0,37.0,56,0.00,,---,0.01,227.00,VWS V14.01,2013-02-10 18:14:00,
2013-02-10 12:15:00,43.1,26.7,29.39,North,350,24.0,36.0,52,0.00,,---,0.01,264.00,VWS V14.01,2013-02-10 18:15:00,
2013-02-10 12:19:00,42.2,27.2,29.38,NW,309,30.0,36.0,55,0.00,,---,0.01,764.00,VWS V14.01,2013-02-10 18:19:00,
2013-02-10 12:20:00,42.2,27.2,29.38,NW,309,30.0,36.0,55,0.00,,---,0.01,764.00,VWS V14.01,2013-02-10 18:20:00,
2013-02-10 12:24:00,42.2,27.2,29.38,North,350,20.0,26.0,55,0.00,,---,0.01,266.00,VWS V14.01,2013-02-10 18:24:00,
2013-02-10 12:25:00,42.2,27.2,29.38,NNW,339,26.0,38.0,55,0.00,,---,0.01,457.00,VWS V14.01,2013-02-10 18:25:00,
2013-02-10 12:29:00,42.6,27.1,29.38,NNW,330,33.0,33.0,54,0.00,,---,0.01,280.00,VWS V14.01,2013-02-10 18:29:00,
2013-02-10 12:30:00,42.6,27.1,29.38,NNW,333,33.0,34.0,54,0.00,,---,0.01,313.00,VWS V14.01,2013-02-10 18:30:00,
2013-02-10 12:34:00,42.2,27.2,29.38,NNW,347,34.0,34.0,55,0.00,,---,0.01,329.00,VWS V14.01,2013-02-10 18:34:00,
2013-02-10 12:35:00,42.2,27.2,29.38,NW,319,30.0,35.0,55,0.00,,---,0.01,285.00,VWS V14.01,2013-02-10 18:35:00,
2013-02-10 12:40:00,43.3,28.7,29.38,North,357,22.0,33.0,56,0.00,,---,0.01,304.00,VWS V14.01,2013-02-10 18:40:00,
2013-02-10 12:45:00,43.1,27.6,29.39,NW,308,31.0,34.0,54,0.00,,---,0.01,324.00,VWS V14.01,2013-02-10 18:45:00,
2013-02-10 12:50:00,42.3,26.9,29.39,NNW,333,24.0,34.0,54,0.00,,---,0.01,289.00,VWS V14.01,2013-02-10 18:50:00,
2013-02-10 12:55:00,42.6,26.7,29.39,WNW,288,20.0,36.0,53,0.00,,---,0.01,435.00,VWS V14.01,2013-02-10 18:55:00,
2013-02-10 13:00:00,42.8,26.9,29.39,North,0,16.0,31.0,53,0.00,,---,0.01,266.00,VWS V14.01,2013-02-10 19:00:00,
2013-02-10 13:05:00,42.9,27.0,29.39,North,353,29.0,33.0,53,0.00,,---,0.01,463.00,VWS V14.01,2013-02-10 19:05:00,
2013-02-10 13:10:00,42.8,27.3,29.39,NW,311,26.0,27.0,54,0.00,,---,0.01,709.00,VWS V14.01,2013-02-10 19:10:00,
2013-02-10 13:15:00,43.1,27.1,29.39,NW,320,26.0,34.0,53,0.00,,---,0.01,264.00,VWS V14.01,2013-02-10 19:15:00,
2013-02-10 13:20:00,43.3,27.8,29.39,WNW,295,31.0,31.0,54,0.00,,---,0.01,264.00,VWS V14.01,2013-02-10 19:20:00,
2013-02-10 13:25:00,43.5,27.1,29.39,NNW,344,21.0,37.0,52,0.00,,---,0.01,264.00,VWS V14.01,2013-02-10 19:25:00,
2013-02-10 13:30:00,43.9,27.9,29.40,North,350,25.0,37.0,53,0.00,,---,0.01,304.00,VWS V14.01,2013-02-10 19:30:00,
2013-02-10 13:31:00,43.9,27.4,29.40,NNW,336,29.0,33.0,52,0.00,,---,0.01,246.00,VWS V14.01,2013-02-10 19:31:00,
2013-02-10 13:35:00,43.3,26.9,29.40,NNW,336,17.0,39.0,52,0.00,,---,0.01,283.00,VWS V14.01,2013-02-10 19:35:00,
2013-02-10 13:36:00,43.1,26.7,29.40,NW,325,16.0,35.0,52,0.00,,---,0.01,199.00,VWS V14.01,2013-02-10 19:36:00,
2013-02-10 13:40:00,42.9,26.5,29.40,North,356,30.0,39.0,52,0.00,,---,0.01,259.00,VWS V14.01,2013-02-10 19:40:00,
2013-02-10 13:41:00,43.1,26.7,29.40,North,357,35.0,43.0,52,0.00,,---,0.01,215.00,VWS V14.01,2013-02-10 19:41:00,
2013-02-10 13:45:00,41.5,26.5,29.45,North,0,16.0,36.0,55,0.00,,---,0.01,125.00,VWS V14.01,2013-02-10 19:45:00,
2013-02-10 13:46:00,43.2,26.8,29.41,NNW,342,20.0,33.0,52,0.00,,---,0.01,296.00,VWS V14.01,2013-02-10 19:46:00,
2013-02-10 13:50:00,43.2,26.8,29.41,NNW,329,34.0,40.0,52,0.00,,---,0.01,287.00,VWS V14.01,2013-02-10 19:50:00,
2013-02-10 13:51:00,42.9,26.5,29.41,North,350,21.0,39.0,52,0.00,,---,0.01,317.00,VWS V14.01,2013-02-10 19:51:00,
2013-02-10 13:55:00,43.1,27.1,29.41,WNW,291,33.0,39.0,53,0.00,,---,0.01,287.00,VWS V14.01,2013-02-10 19:55:00,
2013-02-10 13:56:00,42.9,26.0,29.41,North,349,43.0,45.0,51,0.00,,---,0.01,334.00,VWS V14.01,2013-02-10 19:56:00,
2013-02-10 14:00:00,42.8,26.4,29.42,NNW,337,24.0,45.0,52,0.00,,---,0.01,334.00,VWS V14.01,2013-02-10 20:00:00,
2013-02-10 14:01:00,42.6,26.2,29.42,NW,322,29.0,40.0,52,0.00,,---,0.01,285.00,VWS V14.01,2013-02-10 20:01:00,
2013-02-10 14:05:00,42.9,27.4,29.42,NNW,335,29.0,40.0,54,0.00,,---,0.01,276.00,VWS V14.01,2013-02-10 20:05:00,
2013-02-10 14:06:00,43.1,27.6,29.42,North,0,32.0,32.0,54,0.00,,---,0.01,318.00,VWS V14.01,2013-02-10 20:06:00,
2013-02-10 14:10:00,42.9,26.5,29.42,NW,325,21.0,35.0,52,0.00,,---,0.01,375.00,VWS V14.01,2013-02-10 20:10:00,
2013-02-10 14:11:00,42.6,26.2,29.42,North,356,22.0,38.0,52,0.00,,---,0.01,227.00,VWS V14.01,2013-02-10 20:11:00,
2013-02-10 14:15:00,42.3,25.9,29.42,NNW,329,25.0,39.0,52,0.00,,---,0.01,206.00,VWS V14.01,2013-02-10 20:15:00,
2013-02-10 14:17:00,42.2,26.3,29.42,NW,305,30.0,37.0,53,0.00,,---,0.01,208.00,VWS V14.01,2013-02-10 20:17:00,
2013-02-10 14:20:00,42.1,25.8,29.42,NNW,346,34.0,41.0,52,0.00,,---,0.01,199.00,VWS V14.01,2013-02-10 20:20:00,
2013-02-10 14:22:00,42.1,26.2,29.42,NW,319,31.0,41.0,53,0.00,,---,0.01,194.00,VWS V14.01,2013-02-10 20:22:00,
2013-02-10 14:25:00,42.1,26.2,29.42,NNW,339,28.0,41.0,53,0.00,,---,0.01,195.00,VWS V14.01,2013-02-10 20:25:00,
2013-02-10 14:27:00,41.9,26.0,29.42,North,0,19.0,33.0,53,0.00,,---,0.01,164.00,VWS V14.01,2013-02-10 20:27:00,
2013-02-10 14:30:00,41.9,26.0,29.44,NNW,330,36.0,36.0,53,0.00,,---,0.01,171.00,VWS V14.01,2013-02-10 20:30:00,
2013-02-10 14:32:00,41.6,25.8,29.44,NW,312,29.0,40.0,53,0.00,,---,0.01,157.00,VWS V14.01,2013-02-10 20:32:00,
2013-02-10 14:35:00,41.6,25.8,29.44,NW,326,31.0,40.0,53,0.00,,---,0.01,151.00,VWS V14.01,2013-02-10 20:35:00,
2013-02-10 14:37:00,41.5,25.7,29.44,North,356,31.0,43.0,53,0.00,,---,0.01,137.00,VWS V14.01,2013-02-10 20:37:00,
2013-02-10 14:40:00,41.6,25.8,29.44,NNW,344,24.0,43.0,53,0.00,,---,0.01,137.00,VWS V14.01,2013-02-10 20:40:00,
2013-02-10 14:42:00,41.5,25.7,29.44,North,0,33.0,36.0,53,0.00,,---,0.01,127.00,VWS V14.01,2013-02-10 20:42:00,
2013-02-10 14:45:00,41.5,26.5,29.45,North,0,16.0,36.0,55,0.00,,---,0.01,125.00,VWS V14.01,2013-02-10 20:45:00,
2013-02-10 14:48:00,41.5,26.5,29.45,NNW,330,26.0,30.0,55,0.00,,---,0.01,132.00,VWS V14.01,2013-02-10 20:48:00,
2013-02-10 14:50:00,41.5,26.1,29.45,NW,316,22.0,30.0,54,0.00,,---,0.01,132.00,VWS V14.01,2013-02-10 20:50:00,
2013-02-10 14:53:00,41.3,25.9,29.45,North,0,40.0,40.0,54,0.00,,---,0.01,106.00,VWS V14.01,2013-02-10 20:53:00,
2013-02-10 14:55:00,41.2,25.8,29.45,NW,312,26.0,42.0,54,0.00,,---,0.01,100.00,VWS V14.01,2013-02-10 20:55:00,
2013-02-10 14:58:00,41.1,25.7,29.45,North,0,30.0,36.0,54,0.00,,---,0.01,104.00,VWS V14.01,2013-02-10 20:58:00,
2013-02-10 15:00:00,41.1,25.7,29.47,NNW,333,20.0,36.0,54,0.00,,---,0.01,104.00,VWS V14.01,2013-02-10 21:00:00,
2013-02-10 15:03:00,41.1,26.2,29.47,North,0,17.0,37.0,55,0.00,,---,0.01,97.00,VWS V14.01,2013-02-10 21:03:00,
2013-02-10 15:05:00,41.1,25.7,29.47,NNW,340,25.0,37.0,54,0.00,,---,0.01,97.00,VWS V14.01,2013-02-10 21:05:00,
2013-02-10 15:08:00,40.9,26.0,29.47,NNW,328,32.0,34.0,55,0.00,,---,0.01,86.00,VWS V14.01,2013-02-10 21:08:00,
2013-02-10 15:10:00,40.9,25.5,29.47,NNW,346,26.0,34.0,54,0.00,,---,0.01,86.00,VWS V14.01,2013-02-10 21:10:00,
2013-02-10 15:13:00,40.9,26.0,29.48,North,353,25.0,33.0,55,0.00,,---,0.01,88.00,VWS V14.01,2013-02-10 21:13:00,
2013-02-10 15:15:00,40.9,26.0,29.48,North,0,21.0,33.0,55,0.00,,---,0.01,88.00,VWS V14.01,2013-02-10 21:15:00,
2013-02-10 15:19:00,40.8,25.9,29.48,NW,320,28.0,37.0,55,0.00,,---,0.01,86.00,VWS V14.01,2013-02-10 21:19:00,
2013-02-10 15:20:00,40.8,25.9,29.48,NNW,346,26.0,37.0,55,0.00,,---,0.01,86.00,VWS V14.01,2013-02-10 21:20:00,
2013-02-10 15:24:00,40.8,25.9,29.48,North,0,18.0,36.0,55,0.00,,---,0.01,100.00,VWS V14.01,2013-02-10 21:24:00,
2013-02-10 15:25:00,40.8,25.9,29.48,North,0,19.0,36.0,55,0.00,,---,0.01,100.00,VWS V14.01,2013-02-10 21:25:00,
2013-02-10 15:29:00,40.8,25.9,29.49,North,0,27.0,34.0,55,0.00,,---,0.01,83.00,VWS V14.01,2013-02-10 21:29:00,
2013-02-10 15:30:00,40.8,25.9,29.49,NNW,335,21.0,34.0,55,0.00,,---,0.01,83.00,VWS V14.01,2013-02-10 21:30:00,
2013-02-10 15:34:00,40.8,25.9,29.49,North,357,26.0,30.0,55,0.00,,---,0.01,90.00,VWS V14.01,2013-02-10 21:34:00,
2013-02-10 15:35:00,40.8,25.9,29.49,North,357,26.0,30.0,55,0.00,,---,0.01,90.00,VWS V14.01,2013-02-10 21:35:00,
2013-02-10 15:39:00,40.8,25.9,29.49,North,353,19.0,34.0,55,0.00,,---,0.01,77.00,VWS V14.01,2013-02-10 21:39:00,
2013-02-10 15:40:00,40.8,25.9,29.49,North,353,19.0,34.0,55,0.00,,---,0.01,77.00,VWS V14.01,2013-02-10 21:40:00,
2013-02-10 15:44:00,40.6,25.7,29.50,NW,322,21.0,37.0,55,0.00,,---,0.01,79.00,VWS V14.01,2013-02-10 21:44:00,
2013-02-10 15:45:00,40.6,25.7,29.50,NW,322,21.0,37.0,55,0.00,,---,0.01,79.00,VWS V14.01,2013-02-10 21:45:00,
2013-02-10 15:49:00,40.6,25.7,29.50,NNW,336,29.0,32.0,55,0.00,,---,0.01,79.00,VWS V14.01,2013-02-10 21:49:00,
2013-02-10 15:50:00,40.6,25.7,29.50,NNW,343,32.0,36.0,55,0.00,,---,0.01,76.00,VWS V14.01,2013-02-10 21:50:00,
2013-02-10 15:54:00,40.6,25.7,29.50,NW,319,32.0,34.0,55,0.00,,---,0.01,91.00,VWS V14.01,2013-02-10 21:54:00,
2013-02-10 15:55:00,40.6,25.7,29.50,WNW,289,30.0,35.0,55,0.00,,---,0.01,93.00,VWS V14.01,2013-02-10 21:55:00,
2013-02-10 15:59:00,40.6,25.7,29.51,North,0,21.0,24.0,55,0.00,,---,0.01,60.00,VWS V14.01,2013-02-10 21:59:00,
2013-02-10 16:00:00,40.6,25.7,29.51,NNW,346,19.0,34.0,55,0.00,,---,0.01,62.00,VWS V14.01,2013-02-10 22:00:00,
2013-02-10 16:04:00,40.5,25.6,29.51,NNW,343,37.0,37.0,55,0.00,,---,0.01,63.00,VWS V14.01,2013-02-10 22:04:00,
2013-02-10 16:05:00,40.5,25.6,29.51,WNW,287,24.0,35.0,55,0.00,,---,0.01,58.00,VWS V14.01,2013-02-10 22:05:00,
2013-02-10 16:10:00,40.3,25.4,29.51,NNW,339,24.0,38.0,55,0.00,,---,0.01,58.00,VWS V14.01,2013-02-10 22:10:00,
2013-02-10 16:15:00,40.2,25.3,29.53,NW,325,19.0,30.0,55,0.00,,---,0.01,48.00,VWS V14.01,2013-02-10 22:15:00,
2013-02-10 16:20:00,40.2,26.2,29.53,North,357,12.0,27.0,57,0.00,,---,0.01,51.00,VWS V14.01,2013-02-10 22:20:00,
2013-02-10 16:25:00,40.2,26.2,29.53,NNW,330,25.0,32.0,57,0.00,,---,0.01,49.00,VWS V14.01,2013-02-10 22:25:00,
2013-02-10 16:30:00,40.1,26.1,29.55,WNW,285,26.0,31.0,57,0.00,,---,0.01,77.00,VWS V14.01,2013-02-10 22:30:00,
2013-02-10 16:35:00,40.1,26.1,29.55,North,0,30.0,34.0,57,0.00,,---,0.01,62.00,VWS V14.01,2013-02-10 22:35:00,
2013-02-10 16:40:00,40.1,26.5,29.55,NNW,340,33.0,33.0,58,0.00,,---,0.01,65.00,VWS V14.01,2013-02-10 22:40:00,
2013-02-10 16:45:00,40.1,25.7,29.56,WNW,285,27.0,36.0,56,0.00,,---,0.01,33.00,VWS V14.01,2013-02-10 22:45:00,
2013-02-10 16:50:00,40.1,26.1,29.56,WNW,289,16.0,36.0,57,0.00,,---,0.01,74.00,VWS V14.01,2013-02-10 22:50:00,
2013-02-10 16:51:00,40.2,26.6,29.56,NW,305,20.0,25.0,58,0.00,,---,0.01,102.00,VWS V14.01,2013-02-10 22:51:00,
2013-02-10 16:55:00,40.5,26.5,29.56,NW,308,22.0,30.0,57,0.00,,---,0.01,208.00,VWS V14.01,2013-02-10 22:55:00,
2013-02-10 16:56:00,40.6,26.1,29.56,NW,318,20.0,28.0,56,0.00,,---,0.01,88.00,VWS V14.01,2013-02-10 22:56:00,
2013-02-10 17:00:00,40.5,25.6,29.57,NNW,335,27.0,32.0,55,0.00,,---,0.01,48.00,VWS V14.01,2013-02-10 23:00:00,
2013-02-10 17:01:00,40.3,25.4,29.57,North,0,25.0,36.0,55,0.00,,---,0.01,48.00,VWS V14.01,2013-02-10 23:01:00,
2013-02-10 17:05:00,40.2,25.8,29.57,NW,308,26.0,36.0,56,0.00,,---,0.01,44.00,VWS V14.01,2013-02-10 23:05:00,
2013-02-10 17:06:00,40.1,25.7,29.57,NW,323,32.0,34.0,56,0.00,,---,0.01,37.00,VWS V14.01,2013-02-10 23:06:00,
2013-02-10 17:10:00,39.9,25.9,29.57,NW,322,33.0,34.0,57,0.00,,---,0.01,25.00,VWS V14.01,2013-02-10 23:10:00,
2013-02-10 17:11:00,39.9,26.3,29.57,NW,322,34.0,34.0,58,0.00,,---,0.01,21.00,VWS V14.01,2013-02-10 23:11:00,
2013-02-10 17:15:00,39.9,26.3,29.59,NNW,340,28.0,34.0,58,0.00,,---,0.01,19.00,VWS V14.01,2013-02-10 23:15:00,
2013-02-10 17:16:00,40.1,26.5,29.59,NW,315,29.0,32.0,58,0.00,,---,0.01,16.00,VWS V14.01,2013-02-10 23:16:00,
2013-02-10 17:20:00,39.9,26.8,29.59,WNW,287,25.0,34.0,59,0.00,,---,0.01,16.00,VWS V14.01,2013-02-10 23:20:00,
2013-02-10 17:21:00,39.9,27.2,29.59,WNW,296,22.0,32.0,60,0.00,,---,0.01,16.00,VWS V14.01,2013-02-10 23:21:00,
2013-02-10 17:25:00,39.9,27.6,29.59,WNW,284,24.0,32.0,61,0.00,,---,0.01,18.00,VWS V14.01,2013-02-10 23:25:00,
2013-02-10 17:27:00,39.9,27.6,29.59,WNW,301,22.0,29.0,61,0.00,,---,0.01,18.00,VWS V14.01,2013-02-10 23:27:00,
2013-02-10 17:30:00,40.1,28.1,29.60,WNW,284,30.0,32.0,62,0.00,,---,0.01,51.00,VWS V14.01,2013-02-10 23:30:00,
2013-02-10 17:32:00,39.9,28.0,29.60,WNW,291,30.0,30.0,62,0.00,,---,0.01,55.00,VWS V14.01,2013-02-10 23:32:00,
2013-02-10 17:35:00,39.9,28.3,29.60,NW,305,17.0,30.0,63,0.00,,---,0.01,42.00,VWS V14.01,2013-02-10 23:35:00,
2013-02-10 17:37:00,39.9,28.3,29.60,WNW,298,27.0,35.0,63,0.00,,---,0.01,39.00,VWS V14.01,2013-02-10 23:37:00,
2013-02-10 17:40:00,39.9,28.3,29.60,NNW,343,25.0,35.0,63,0.00,,---,0.01,46.00,VWS V14.01,2013-02-10 23:40:00,
2013-02-10 17:42:00,39.8,28.6,29.60,WNW,301,32.0,32.0,64,0.00,,---,0.01,33.00,VWS V14.01,2013-02-10 23:42:00,
2013-02-10 17:45:00,39.6,28.4,29.62,NW,318,27.0,33.0,64,0.00,,---,0.01,28.00,VWS V14.01,2013-02-10 23:45:00,
2013-02-10 17:47:00,39.3,27.8,29.62,WNW,284,16.0,37.0,63,0.00,,---,0.01,25.00,VWS V14.01,2013-02-10 23:47:00,
2013-02-10 17:50:00,39.3,27.8,29.62,WNW,288,20.0,37.0,63,0.00,,---,0.01,23.00,VWS V14.01,2013-02-10 23:50:00,
2013-02-10 17:52:00,39.2,27.3,29.62,NW,319,17.0,29.0,62,0.00,,---,0.01,16.00,VWS V14.01,2013-02-10 23:52:00,
2013-02-10 17:55:00,39.1,27.2,29.62,NNW,337,27.0,29.0,62,0.00,,---,0.01,14.00,VWS V14.01,2013-02-10 23:55:00,
2013-02-10 17:57:00,39.1,26.8,29.62,WNW,292,20.0,32.0,61,0.00,,---,0.01,14.00,VWS V14.01,2013-02-10 23:57:00,
2013-02-10 18:00:00,39.1,26.4,29.63,WNW,292,20.0,32.0,60,0.00,,---,0.01,12.00,VWS V14.01,2013-02-11 00:00:00,
2013-02-10 18:02:00,39.1,26.0,29.63,NW,315,20.0,32.0,59,0.00,,---,0.01,9.00,VWS V14.01,2013-02-11 00:02:00,
2013-02-10 18:05:00,39.1,26.0,29.63,WNW,282,21.0,32.0,59,0.00,,---,0.01,9.00,VWS V14.01,2013-02-11 00:05:00,
2013-02-10 18:08:00,38.9,25.4,29.63,NW,305,16.0,29.0,58,0.00,,---,0.01,5.00,VWS V14.01,2013-02-11 00:08:00,
2013-02-10 18:10:00,38.9,25.4,29.63,NNW,332,20.0,29.0,58,0.00,,---,0.01,5.00,VWS V14.01,2013-02-11 00:10:00,
2013-02-10 18:13:00,38.8,25.3,29.63,NW,315,20.0,24.0,58,0.00,,---,0.01,0.00,VWS V14.01,2013-02-11 00:13:00,
2013-02-10 18:15:00,38.8,25.3,29.65,North,356,17.0,25.0,58,0.00,,---,0.01,0.00,VWS V14.01,2013-02-11 00:15:00,
2013-02-10 18:18:00,38.8,24.9,29.65,NNW,329,19.0,29.0,57,0.00,,---,0.01,0.00,VWS V14.01,2013-02-11 00:18:00,
2013-02-10 18:20:00,38.8,25.3,29.65,WNW,302,16.0,29.0,58,0.00,,---,0.01,0.00,VWS V14.01,2013-02-11 00:20:00,
2013-02-10 18:23:00,38.6,25.1,29.65,WNW,282,18.0,25.0,58,0.00,,---,0.01,0.00,VWS V14.01,2013-02-11 00:23:00,
2013-02-10 18:25:00,38.6,25.1,29.65,WNW,291,14.0,27.0,58,0.00,,---,0.01,0.00,VWS V14.01,2013-02-11 00:25:00,
2013-02-10 18:28:00,38.6,25.1,29.65,NNW,330,13.0,24.0,58,0.00,,---,0.01,0.00,VWS V14.01,2013-02-11 00:28:00,
2013-02-10 18:30:00,38.6,25.1,29.66,West,277,20.0,24.0,58,0.00,,---,0.01,0.00,VWS V14.01,2013-02-11 00:30:00,
2013-02-10 18:33:00,38.5,25.4,29.66,WNW,291,21.0,22.0,59,0.00,,---,0.01,0.00,VWS V14.01,2013-02-11 00:33:00,
2013-02-10 18:35:00,38.3,25.2,29.66,NW,311,13.0,22.0,59,0.00,,---,0.01,0.00,VWS V14.01,2013-02-11 00:35:00,
2013-02-10 18:38:00,38.3,25.6,29.66,NW,306,19.0,22.0,60,0.00,,---,0.01,0.00,VWS V14.01,2013-02-11 00:38:00,
2013-02-10 18:40:00,38.3,26.0,29.66,NW,309,12.0,22.0,61,0.00,,---,0.01,0.00,VWS V14.01,2013-02-11 00:40:00,
2013-02-10 18:43:00,38.3,26.0,29.67,WNW,296,13.0,21.0,61,0.00,,---,0.01,0.00,VWS V14.01,2013-02-11 00:43:00,
2013-02-10 18:45:00,38.3,26.0,29.67,West,278,18.0,21.0,61,0.00,,---,0.01,0.00,VWS V14.01,2013-02-11 00:45:00,
2013-02-10 18:48:00,38.2,26.3,29.67,WNW,289,10.0,19.0,62,0.00,,---,0.01,0.00,VWS V14.01,2013-02-11 00:48:00,
2013-02-10 18:50:00,38.2,26.3,29.67,WNW,292,14.0,19.0,62,0.00,,---,0.01,0.00,VWS V14.01,2013-02-11 00:50:00,
2013-02-10 18:53:00,38.0,26.5,29.67,WNW,287,16.0,24.0,63,0.00,,---,0.01,0.00,VWS V14.01,2013-02-11 00:53:00,
2013-02-10 18:55:00,38.0,26.5,29.67,WNW,299,12.0,24.0,63,0.00,,---,0.01,0.00,VWS V14.01,2013-02-11 00:55:00,
2013-02-10 18:58:00,38.0,26.5,29.68,WNW,299,21.0,21.0,63,0.00,,---,0.01,0.00,VWS V14.01,2013-02-11 00:58:00,
2013-02-10 19:00:00,38.0,26.5,29.68,WNW,288,21.0,21.0,63,0.00,,---,0.01,0.00,VWS V14.01,2013-02-11 01:00:00,
2013-02-10 19:03:00,38.2,26.7,29.68,West,280,19.0,24.0,63,0.00,,---,0.01,0.00,VWS V14.01,2013-02-11 01:03:00,
2013-02-10 19:05:00,38.2,26.7,29.68,WNW,287,17.0,24.0,63,0.00,,---,0.01,0.00,VWS V14.01,2013-02-11 01:05:00,
2013-02-10 19:08:00,38.0,26.5,29.68,NW,308,8.0,20.0,63,0.00,,---,0.01,0.00,VWS V14.01,2013-02-11 01:08:00,
2013-02-10 19:10:00,38.0,26.5,29.68,West,278,10.0,20.0,63,0.00,,---,0.01,0.00,VWS V14.01,2013-02-11 01:10:00,
2013-02-10 19:13:00,37.9,26.8,29.70,WNW,291,13.0,20.0,64,0.00,,---,0.01,0.00,VWS V14.01,2013-02-11 01:13:00,
2013-02-10 19:15:00,37.9,26.8,29.70,West,267,10.0,20.0,64,0.00,,---,0.01,0.00,VWS V14.01,2013-02-11 01:15:00,
2013-02-10 19:18:00,37.6,26.5,29.70,WNW,298,18.0,18.0,64,0.00,,---,0.01,0.00,VWS V14.01,2013-02-11 01:18:00,
2013-02-10 19:20:00,37.6,26.9,29.70,WNW,288,11.0,18.0,65,0.00,,---,0.01,0.00,VWS V14.01,2013-02-11 01:20:00,
2013-02-10 19:23:00,37.3,26.6,29.70,WNW,291,10.0,17.0,65,0.00,,---,0.01,0.00,VWS V14.01,2013-02-11 01:23:00,
2013-02-10 19:25:00,37.3,26.6,29.70,West,278,11.0,17.0,65,0.00,,---,0.01,0.00,VWS V14.01,2013-02-11 01:25:00,
2013-02-10 19:29:00,37.5,26.8,29.71,WNW,298,21.0,22.0,65,0.00,,---,0.01,0.00,VWS V14.01,2013-02-11 01:29:00,
2013-02-10 19:30:00,37.5,26.8,29.71,WNW,287,16.0,22.0,65,0.00,,---,0.01,0.00,VWS V14.01,2013-02-11 01:30:00,
2013-02-10 19:34:00,37.6,26.9,29.71,NW,304,11.0,21.0,65,0.00,,---,0.01,0.00,VWS V14.01,2013-02-11 01:34:00,
2013-02-10 19:35:00,37.6,26.9,29.71,WNW,288,14.0,21.0,65,0.00,,---,0.01,0.00,VWS V14.01,2013-02-11 01:35:00,
2013-02-10 19:39:00,37.5,26.8,29.71,NW,309,11.0,19.0,65,0.00,,---,0.01,0.00,VWS V14.01,2013-02-11 01:39:00,
2013-02-10 19:40:00,37.5,26.8,29.71,NW,311,12.0,19.0,65,0.00,,---,0.01,0.00,VWS V14.01,2013-02-11 01:40:00,
2013-02-10 19:44:00,37.3,26.6,29.72,West,271,7.0,19.0,65,0.00,,---,0.01,0.00,VWS V14.01,2013-02-11 01:44:00,
2013-02-10 19:45:00,37.3,26.6,29.72,West,270,16.0,19.0,65,0.00,,---,0.01,0.00,VWS V14.01,2013-02-11 01:45:00,
2013-02-10 19:49:00,37.2,26.5,29.72,WNW,292,11.0,18.0,65,0.00,,---,0.01,0.00,VWS V14.01,2013-02-11 01:49:00,
2013-02-10 19:50:00,37.2,26.5,29.72,North,349,10.0,18.0,65,0.00,,---,0.01,0.00,VWS V14.01,2013-02-11 01:50:00,
2013-02-10 19:54:00,37.2,26.5,29.72,WNW,285,14.0,18.0,65,0.00,,---,0.01,0.00,VWS V14.01,2013-02-11 01:54:00,
2013-02-10 19:55:00,37.2,26.5,29.72,West,268,16.0,18.0,65,0.00,,---,0.01,0.00,VWS V14.01,2013-02-11 01:55:00,
2013-02-10 19:59:00,37.2,26.5,29.74,NW,305,10.0,19.0,65,0.00,,---,0.01,0.00,VWS V14.01,2013-02-11 01:59:00,
2013-02-10 20:00:00,37.2,26.5,29.74,NW,305,10.0,19.0,65,0.00,,---,0.01,0.00,VWS V14.01,2013-02-11 02:00:00,
2013-02-10 20:04:00,37.2,26.5,29.74,WNW,295,12.0,21.0,65,0.00,,---,0.01,0.00,VWS V14.01,2013-02-11 02:04:00,
2013-02-10 20:05:00,37.2,26.5,29.74,WNW,295,12.0,21.0,65,0.00,,---,0.01,0.00,VWS V14.01,2013-02-11 02:05:00,
2013-02-10 20:09:00,37.0,26.3,29.74,WNW,298,12.0,14.0,65,0.00,,---,0.01,0.00,VWS V14.01,2013-02-11 02:09:00,
2013-02-10 20:10:00,37.0,26.3,29.74,WNW,287,14.0,18.0,65,0.00,,---,0.01,0.00,VWS V14.01,2013-02-11 02:10:00,
2013-02-10 20:14:00,37.0,26.3,29.74,WNW,288,13.0,16.0,65,0.00,,---,0.01,0.00,VWS V14.01,2013-02-11 02:14:00,
2013-02-10 20:15:00,37.0,26.3,29.74,WNW,287,16.0,21.0,65,0.00,,---,0.01,0.00,VWS V14.01,2013-02-11 02:15:00,
2013-02-10 20:19:00,37.2,25.8,29.74,NW,322,18.0,18.0,63,0.00,,---,0.01,0.00,VWS V14.01,2013-02-11 02:19:00,
2013-02-10 20:20:00,37.2,25.8,29.74,WNW,295,12.0,22.0,63,0.00,,---,0.01,0.00,VWS V14.01,2013-02-11 02:20:00,
2013-02-10 20:24:00,37.2,25.8,29.74,NW,308,16.0,20.0,63,0.00,,---,0.01,0.00,VWS V14.01,2013-02-11 02:24:00,
2013-02-10 20:25:00,37.2,25.8,29.74,WNW,298,17.0,18.0,63,0.00,,---,0.01,0.00,VWS V14.01,2013-02-11 02:25:00,
2013-02-10 20:29:00,37.3,25.5,29.75,West,271,13.0,20.0,62,0.00,,---,0.01,0.00,VWS V14.01,2013-02-11 02:29:00,
2013-02-10 20:30:00,37.3,25.5,29.75,WNW,282,17.0,21.0,62,0.00,,---,0.01,0.00,VWS V14.01,2013-02-11 02:30:00,
2013-02-10 20:34:00,37.5,25.3,29.75,NW,311,18.0,19.0,61,0.00,,---,0.01,0.00,VWS V14.01,2013-02-11 02:34:00,
2013-02-10 20:35:00,37.5,25.3,29.75,NW,305,12.0,22.0,61,0.00,,---,0.01,0.00,VWS V14.01,2013-02-11 02:35:00,
2013-02-10 20:40:00,37.3,25.1,29.75,West,275,12.0,17.0,61,0.00,,---,0.01,0.00,VWS V14.01,2013-02-11 02:40:00,
2013-02-10 20:45:00,37.3,25.1,29.77,West,275,14.0,14.0,61,0.00,,---,0.01,0.00,VWS V14.01,2013-02-11 02:45:00,
2013-02-10 20:50:00,37.3,24.7,29.77,WNW,302,14.0,17.0,60,0.00,,---,0.01,0.00,VWS V14.01,2013-02-11 02:50:00,
2013-02-10 20:55:00,37.2,24.6,29.77,WNW,284,14.0,19.0,60,0.00,,---,0.01,0.00,VWS V14.01,2013-02-11 02:55:00,
2013-02-10 21:00:00,37.3,24.3,29.77,NW,325,18.0,18.0,59,0.00,,---,0.01,0.00,VWS V14.01,2013-02-11 03:00:00,
2013-02-10 21:05:00,37.6,24.6,29.77,WNW,282,18.0,22.0,59,0.00,,---,0.01,0.00,VWS V14.01,2013-02-11 03:05:00,
2013-02-10 21:10:00,37.3,24.3,29.77,WNW,294,10.0,25.0,59,0.00,,---,0.01,0.00,VWS V14.01,2013-02-11 03:10:00,
2013-02-10 21:15:00,37.3,24.3,29.78,NW,318,16.0,18.0,59,0.00,,---,0.01,0.00,VWS V14.01,2013-02-11 03:15:00,
2013-02-10 21:20:00,37.3,23.9,29.78,WNW,288,13.0,26.0,58,0.00,,---,0.01,0.00,VWS V14.01,2013-02-11 03:20:00,
2013-02-10 21:25:00,37.3,23.9,29.78,NNW,343,20.0,29.0,58,0.00,,---,0.01,0.00,VWS V14.01,2013-02-11 03:25:00,
2013-02-10 21:30:00,37.3,23.9,29.79,West,264,14.0,21.0,58,0.00,,---,0.01,0.00,VWS V14.01,2013-02-11 03:30:00,
2013-02-10 21:35:00,37.0,23.6,29.79,WNW,295,13.0,21.0,58,0.00,,---,0.01,0.00,VWS V14.01,2013-02-11 03:35:00,
2013-02-10 21:40:00,36.9,23.9,29.79,NNW,339,15.0,22.0,59,0.00,,---,0.01,0.00,VWS V14.01,2013-02-11 03:40:00,
2013-02-10 21:45:00,36.8,23.8,29.80,NNW,344,11.0,22.0,59,0.00,,---,0.01,0.00,VWS V14.01,2013-02-11 03:45:00,
2013-02-10 21:46:00,36.6,23.6,29.80,WNW,288,11.0,20.0,59,0.00,,---,0.01,0.00,VWS V14.01,2013-02-11 03:46:00,
2013-02-10 21:50:00,36.6,23.6,29.80,West,280,17.0,21.0,59,0.00,,---,0.01,0.00,VWS V14.01,2013-02-11 03:50:00,
2013-02-10 21:51:00,36.6,23.6,29.80,NW,311,12.0,19.0,59,0.00,,---,0.01,0.00,VWS V14.01,2013-02-11 03:51:00,
2013-02-10 21:55:00,33.2,24.1,29.83,North,0,9.0,13.0,69,0.00,,---,0.01,0.00,VWS V14.01,2013-02-11 03:55:00,
2013-02-10 21:56:00,36.3,23.8,29.80,NW,311,17.0,21.0,60,0.00,,---,0.01,0.00,VWS V14.01,2013-02-11 03:56:00,
2013-02-10 22:00:00,36.2,23.7,29.80,NW,304,22.0,22.0,60,0.00,,---,0.01,0.00,VWS V14.01,2013-02-11 04:00:00,
2013-02-10 22:01:00,36.2,23.7,29.80,West,271,13.0,22.0,60,0.00,,---,0.01,0.00,VWS V14.01,2013-02-11 04:01:00,
2013-02-10 22:05:00,36.2,24.1,29.80,WNW,282,14.0,22.0,61,0.00,,---,0.01,0.00,VWS V14.01,2013-02-11 04:05:00,
2013-02-10 22:06:00,36.0,23.9,29.80,West,271,11.0,20.0,61,0.00,,---,0.01,0.00,VWS V14.01,2013-02-11 04:06:00,
2013-02-10 22:10:00,35.9,23.8,29.80,WNW,294,11.0,20.0,61,0.00,,---,0.01,0.00,VWS V14.01,2013-02-11 04:10:00,
2013-02-10 22:11:00,35.9,23.8,29.80,West,264,10.0,20.0,61,0.00,,---,0.01,0.00,VWS V14.01,2013-02-11 04:11:00,
2013-02-10 22:15:00,35.8,24.1,29.81,NNW,333,12.0,20.0,62,0.00,,---,0.01,0.00,VWS V14.01,2013-02-11 04:15:00,
2013-02-10 22:16:00,35.6,23.9,29.81,WNW,299,12.0,21.0,62,0.00,,---,0.01,0.00,VWS V14.01,2013-02-11 04:16:00,
2013-02-10 22:20:00,35.5,23.8,29.81,NW,325,12.0,21.0,62,0.00,,---,0.01,0.00,VWS V14.01,2013-02-11 04:20:00,
2013-02-10 22:21:00,35.3,24.0,29.81,West,271,7.0,17.0,63,0.00,,---,0.01,0.00,VWS V14.01,2013-02-11 04:21:00,
2013-02-10 22:25:00,35.2,23.9,29.81,West,268,7.0,17.0,63,0.00,,---,0.01,0.00,VWS V14.01,2013-02-11 04:25:00,
2013-02-10 22:26:00,35.0,23.7,29.81,WNW,302,11.0,14.0,63,0.00,,---,0.01,0.00,VWS V14.01,2013-02-11 04:26:00,
2013-02-10 22:30:00,34.9,24.0,29.82,WNW,292,11.0,14.0,64,0.00,,---,0.01,0.00,VWS V14.01,2013-02-11 04:30:00,
2013-02-10 22:31:00,34.9,24.0,29.82,NW,316,12.0,16.0,64,0.00,,---,0.01,0.00,VWS V14.01,2013-02-11 04:31:00,
2013-02-10 22:35:00,34.7,23.8,29.82,WNW,299,8.0,16.0,64,0.00,,---,0.01,0.00,VWS V14.01,2013-02-11 04:35:00,
2013-02-10 22:36:00,34.7,23.8,29.82,NNW,346,12.0,17.0,64,0.00,,---,0.01,0.00,VWS V14.01,2013-02-11 04:36:00,
2013-02-10 22:40:00,34.7,23.8,29.82,WNW,296,13.0,17.0,64,0.00,,---,0.01,0.00,VWS V14.01,2013-02-11 04:40:00,
2013-02-10 22:42:00,34.6,24.1,29.82,WNW,285,10.0,13.0,65,0.00,,---,0.01,0.00,VWS V14.01,2013-02-11 04:42:00,
2013-02-10 22:45:00,34.3,23.8,29.83,NW,308,11.0,13.0,65,0.00,,---,0.01,0.00,VWS V14.01,2013-02-11 04:45:00,
2013-02-10 22:47:00,34.1,24.0,29.83,WNW,295,11.0,13.0,66,0.00,,---,0.01,0.00,VWS V14.01,2013-02-11 04:47:00,
2013-02-10 22:50:00,33.7,23.9,29.83,NW,322,13.0,14.0,67,0.00,,---,0.01,0.00,VWS V14.01,2013-02-11 04:50:00,
2013-02-10 22:52:00,33.5,24.1,29.83,WSW,257,11.0,13.0,68,0.00,,---,0.01,0.00,VWS V14.01,2013-02-11 04:52:00,
2013-02-10 22:55:00,33.2,24.1,29.83,North,0,9.0,13.0,69,0.00,,---,0.01,0.00,VWS V14.01,2013-02-11 04:55:00,
2013-02-10 22:57:00,33.1,24.0,29.83,WNW,287,10.0,16.0,69,0.00,,---,0.01,0.00,VWS V14.01,2013-02-11 04:57:00,
2013-02-10 23:00:00,33.1,24.0,29.83,West,274,10.0,17.0,69,0.00,,---,0.01,0.00,VWS V14.01,2013-02-11 05:00:00,
2013-02-10 23:01:00,33.1,24.0,29.83,WNW,291,12.0,17.0,69,0.00,,---,0.01,0.00,VWS V14.01,2013-02-11 05:01:00,
2013-02-10 23:05:00,33.1,24.4,29.83,WNW,301,17.0,17.0,70,0.00,,---,0.01,0.00,VWS V14.01,2013-02-11 05:05:00,
2013-02-10 23:06:00,33.1,24.0,29.83,NW,312,15.0,18.0,69,0.00,,---,0.01,0.00,VWS V14.01,2013-02-11 05:06:00,
2013-02-10 23:10:00,33.2,24.1,29.83,West,270,13.0,18.0,69,0.00,,---,0.01,0.00,VWS V14.01,2013-02-11 05:10:00,
2013-02-10 23:11:00,33.4,24.0,29.83,WNW,282,13.0,14.0,68,0.00,,---,0.01,0.00,VWS V14.01,2013-02-11 05:11:00,
2013-02-10 23:15:00,33.5,23.7,29.83,WNW,291,17.0,19.0,67,0.00,,---,0.01,0.00,VWS V14.01,2013-02-11 05:15:00,
2013-02-10 23:16:00,33.7,23.9,29.83,NNW,333,6.0,17.0,67,0.00,,---,0.01,0.00,VWS V14.01,2013-02-11 05:16:00,
2013-02-10 23:20:00,33.7,23.6,29.83,NW,316,16.0,19.0,66,0.00,,---,0.01,0.00,VWS V14.01,2013-02-11 05:20:00,
2013-02-10 23:21:00,33.7,23.6,29.83,WNW,294,15.0,18.0,66,0.00,,---,0.01,0.00,VWS V14.01,2013-02-11 05:21:00,
2013-02-10 23:25:00,33.7,23.6,29.83,NNW,337,13.0,20.0,66,0.00,,---,0.01,0.00,VWS V14.01,2013-02-11 05:25:00,
2013-02-10 23:26:00,33.7,23.6,29.83,NW,325,14.0,18.0,66,0.00,,---,0.01,0.00,VWS V14.01,2013-02-11 05:26:00,
2013-02-10 23:30:00,32.8,22.3,29.87,West,264,11.0,17.0,65,0.00,,---,0.00,0.00,VWS V14.01,2013-02-11 05:30:00,
2013-02-10 23:32:00,33.8,23.3,29.83,West,281,20.0,25.0,65,0.00,,---,0.01,0.00,VWS V14.01,2013-02-11 05:32:00,
2013-02-10 23:35:00,33.8,23.3,29.83,NW,312,18.0,25.0,65,0.00,,---,0.01,0.00,VWS V14.01,2013-02-11 05:35:00,
2013-02-10 23:37:00,34.0,23.1,29.83,WNW,299,19.0,25.0,64,0.00,,---,0.01,0.00,VWS V14.01,2013-02-11 05:37:00,
2013-02-10 23:40:00,34.0,23.1,29.83,NNW,337,20.0,25.0,64,0.00,,---,0.01,0.00,VWS V14.01,2013-02-11 05:40:00,
2013-02-10 23:42:00,34.0,23.1,29.83,NW,311,24.0,26.0,64,0.00,,---,0.01,0.00,VWS V14.01,2013-02-11 05:42:00,
2013-02-10 23:45:00,34.0,22.7,29.83,WNW,295,16.0,26.0,63,0.00,,---,0.01,0.00,VWS V14.01,2013-02-11 05:45:00,
2013-02-10 23:47:00,33.8,22.9,29.83,NW,319,17.0,21.0,64,0.00,,---,0.01,0.00,VWS V14.01,2013-02-11 05:47:00,
2013-02-10 23:50:00,33.8,22.9,29.83,WNW,288,18.0,21.0,64,0.00,,---,0.01,0.00,VWS V14.01,2013-02-11 05:50:00,
2013-02-10 23:52:00,33.7,22.8,29.83,North,0,12.0,21.0,64,0.00,,---,0.01,0.00,VWS V14.01,2013-02-11 05:52:00,
2013-02-10 23:55:00,33.7,22.8,29.83,NW,318,11.0,21.0,64,0.00,,---,0.01,0.00,VWS V14.01,2013-02-11 05:55:00,
2013-02-10 23:57:00,33.5,23.0,29.83,WNW,292,18.0,20.0,65,0.00,,---,0.01,0.00,VWS V14.01,2013-02-11 05:57:00,